createdAt,value
2023-05-08T00:00:31.801Z,99938.14
2023-05-08T00:03:02.613Z,99932.62
2023-05-08T00:05:33.736Z,99932.53
2023-05-08T00:08:04.784Z,99927.46
2023-05-08T00:10:35.707Z,99918.87
2023-05-08T00:13:06.673Z,99921.15
2023-05-08T00:15:38.503Z,99922.86
2023-05-08T00:18:09.298Z,99919.37
2023-05-08T00:20:40.113Z,99924.79
2023-05-08T00:23:11.158Z,99925.55
2023-05-08T00:25:41.791Z,99922.89
2023-05-08T00:28:12.443Z,99920.44
2023-05-08T00:30:43.168Z,99920.88
2023-05-08T00:33:14.083Z,99920.72
2023-05-08T00:35:44.949Z,99920.39
2023-05-08T00:38:15.807Z,99923.00
2023-05-08T00:40:46.530Z,99924.59
2023-05-08T00:43:17.266Z,99924.39
2023-05-08T00:45:48.654Z,99919.66
2023-05-08T00:48:20.420Z,99920.50
2023-05-08T00:50:52.582Z,99919.04
2023-05-08T00:53:27.702Z,99920.29
2023-05-08T00:55:59.553Z,99914.09
2023-05-08T00:58:31.022Z,99912.59
2023-05-08T01:01:02.294Z,99910.98
2023-05-08T01:03:33.947Z,99918.48
2023-05-08T01:06:06.738Z,99921.30
2023-05-08T01:08:37.854Z,99918.52
2023-05-08T01:11:18.524Z,99917.64
2023-05-08T01:13:59.349Z,99921.83
2023-05-08T01:16:37.637Z,99927.25
2023-05-08T01:19:32.775Z,99927.04
2023-05-08T01:22:11.475Z,99936.09
2023-05-08T01:25:07.961Z,99939.58
2023-05-08T01:28:02.455Z,99939.30
2023-05-08T01:31:00.684Z,99940.89
2023-05-08T01:33:37.972Z,99938.31
2023-05-08T01:36:21.875Z,99939.95
2023-05-08T01:39:00.171Z,99942.54
2023-05-08T01:41:33.615Z,99940.86
2023-05-08T01:44:15.066Z,99940.76
2023-05-08T01:46:50.209Z,99943.27
2023-05-08T01:49:26.176Z,99945.36
2023-05-08T01:52:03.096Z,99946.36
2023-05-08T01:54:42.411Z,99949.54
2023-05-08T01:57:15.835Z,99946.80
2023-05-08T01:59:49.293Z,99945.10
2023-05-08T02:02:22.027Z,99947.83
2023-05-08T02:04:54.885Z,99947.81
2023-05-08T02:07:27.363Z,99947.58
2023-05-08T02:09:59.125Z,99940.71
2023-05-08T02:12:31.196Z,99938.60
2023-05-08T02:15:03.678Z,99940.52
2023-05-08T02:17:35.028Z,99941.70
2023-05-08T02:20:14.814Z,99944.81
2023-05-08T02:22:46.819Z,99943.42
2023-05-08T02:25:19.451Z,99938.16
2023-05-08T02:27:54.677Z,99939.27
2023-05-08T02:30:27.601Z,99943.95
2023-05-08T02:33:00.890Z,99942.42
2023-05-08T02:35:33.921Z,99943.84
2023-05-08T02:38:10.764Z,99943.12
2023-05-08T02:40:45.456Z,99943.98
2023-05-08T02:43:16.595Z,99948.33
2023-05-08T02:45:51.230Z,99949.52
2023-05-08T02:48:30.029Z,99950.85
2023-05-08T02:51:06.352Z,99944.76
2023-05-08T02:53:42.058Z,99950.64
2023-05-08T02:56:20.618Z,99944.14
2023-05-08T02:58:58.977Z,99941.27
2023-05-08T03:01:34.665Z,99943.36
2023-05-08T03:04:10.157Z,99942.42
2023-05-08T03:06:44.973Z,99945.82
2023-05-08T03:09:26.352Z,99949.32
2023-05-08T03:12:14.808Z,99948.60
2023-05-08T03:14:50.159Z,99948.54
2023-05-08T03:17:23.813Z,99956.09
2023-05-08T03:20:00.790Z,99956.37
2023-05-08T03:22:35.973Z,99956.83
2023-05-08T03:25:10.737Z,99952.95
2023-05-08T03:27:43.134Z,99949.98
2023-05-08T03:30:16.926Z,99944.73
2023-05-08T03:32:49.425Z,99945.39
2023-05-08T03:35:21.359Z,99947.83
2023-05-08T03:37:54.035Z,99953.08
2023-05-08T03:40:24.884Z,99953.83
2023-05-08T03:42:56.352Z,99953.28
2023-05-08T03:45:27.957Z,99956.79
2023-05-08T03:48:00.972Z,99954.88
2023-05-08T03:50:32.210Z,99958.15
2023-05-08T03:53:03.340Z,99957.67
2023-05-08T03:55:34.854Z,99959.54
2023-05-08T03:58:12.088Z,99966.29
2023-05-08T04:00:58.070Z,99965.00
2023-05-08T04:03:39.425Z,99968.75
2023-05-08T04:06:16.112Z,99974.65
2023-05-08T04:08:56.527Z,99974.09
2023-05-08T04:11:31.968Z,99976.93
2023-05-08T04:14:07.164Z,99983.00
2023-05-08T04:16:44.502Z,99983.56
2023-05-08T04:19:20.731Z,99986.60
2023-05-08T04:21:56.575Z,99987.10
2023-05-08T04:24:30.178Z,99992.07
2023-05-08T04:27:02.680Z,99996.70
2023-05-08T04:29:34.288Z,99996.52
2023-05-08T04:32:08.383Z,100001.66
2023-05-08T04:34:39.840Z,100003.87
2023-05-08T04:37:23.038Z,100001.45
2023-05-08T04:39:55.267Z,100009.58
2023-05-08T04:42:27.044Z,100011.90
2023-05-08T04:44:57.969Z,100016.41
2023-05-08T04:47:28.772Z,100019.45
2023-05-08T04:50:00.698Z,100022.83
2023-05-08T04:52:33.117Z,100025.10
2023-05-08T04:55:04.014Z,100024.89
2023-05-08T04:57:34.760Z,100024.61
2023-05-08T05:00:06.386Z,100029.41
2023-05-08T05:02:37.331Z,100036.70
2023-05-08T05:05:09.676Z,100035.25
2023-05-08T05:07:40.602Z,100036.84
2023-05-08T05:10:12.834Z,100040.16
2023-05-08T05:12:43.577Z,100038.58
2023-05-08T05:15:15.216Z,100042.52
2023-05-08T05:17:46.282Z,100038.92
2023-05-08T05:20:17.404Z,100042.10
2023-05-08T05:22:48.199Z,100042.77
2023-05-08T05:25:19.049Z,100034.00
2023-05-08T05:27:50.415Z,100042.77
2023-05-08T05:30:21.734Z,100040.60
2023-05-08T05:32:52.736Z,100047.20
2023-05-08T05:35:25.583Z,100047.15
2023-05-08T05:37:56.834Z,100055.89
2023-05-08T05:40:27.981Z,100055.34
2023-05-08T05:43:00.270Z,100053.23
2023-05-08T05:45:33.309Z,100056.52
2023-05-08T05:48:04.976Z,100055.11
2023-05-08T05:50:36.112Z,100052.67
2023-05-08T05:53:07.196Z,100053.62
2023-05-08T05:55:38.273Z,100058.43
2023-05-08T05:58:09.105Z,100059.23
2023-05-08T06:00:40.486Z,100062.45
2023-05-08T06:03:12.152Z,100059.73
2023-05-08T06:05:43.284Z,100060.81
2023-05-08T06:08:14.033Z,100061.55
2023-05-08T06:10:44.815Z,100056.54
2023-05-08T06:13:15.607Z,100056.05
2023-05-08T06:15:46.713Z,100054.30
2023-05-08T06:18:18.049Z,100056.80
2023-05-08T06:20:48.947Z,100060.20
2023-05-08T06:23:19.838Z,100064.14
2023-05-08T06:25:50.809Z,100060.98
2023-05-08T06:28:22.669Z,100059.75
2023-05-08T06:30:54.232Z,100062.80
2023-05-08T06:33:26.767Z,100061.34
2023-05-08T06:35:57.939Z,100062.13
2023-05-08T06:38:28.782Z,100057.39
2023-05-08T06:40:59.987Z,100062.41
2023-05-08T06:43:31.338Z,100066.59
2023-05-08T06:46:02.257Z,100065.29
2023-05-08T06:48:33.712Z,100066.98
2023-05-08T06:51:04.946Z,100065.41
2023-05-08T06:53:36.031Z,100063.73
2023-05-08T06:56:07.795Z,100065.02
2023-05-08T06:58:38.669Z,100064.52
2023-05-08T07:01:09.536Z,100061.24
2023-05-08T07:03:41.483Z,100062.84
2023-05-08T07:06:12.394Z,100064.83
2023-05-08T07:08:43.268Z,100061.75
2023-05-08T07:11:14.110Z,100059.86
2023-05-08T07:13:48.368Z,100060.70
2023-05-08T07:16:19.533Z,100057.10
2023-05-08T07:18:50.579Z,100056.48
2023-05-08T07:21:21.764Z,100055.02
2023-05-08T07:23:53.964Z,100059.48
2023-05-08T07:26:25.543Z,100059.69
2023-05-08T07:28:56.333Z,100059.04
2023-05-08T07:31:27.416Z,100055.92
2023-05-08T07:33:58.638Z,100055.36
2023-05-08T07:36:29.678Z,100056.91
2023-05-08T07:39:00.598Z,100050.81
2023-05-08T07:41:31.617Z,100057.32
2023-05-08T07:44:02.624Z,100056.61
2023-05-08T07:46:33.710Z,100054.91
2023-05-08T07:49:04.998Z,100053.06
2023-05-08T07:51:36.024Z,100053.77
2023-05-08T07:54:07.119Z,100048.70
2023-05-08T07:56:38.090Z,100056.33
2023-05-08T07:59:08.992Z,100053.29
2023-05-08T08:01:42.803Z,100056.30
2023-05-08T08:04:15.434Z,100050.56
2023-05-08T08:06:46.431Z,100050.73
2023-05-08T08:09:17.699Z,100049.48
2023-05-08T08:11:48.703Z,100045.53
2023-05-08T08:14:19.501Z,100050.02
2023-05-08T08:16:50.992Z,100048.79
2023-05-08T08:19:21.906Z,100044.55
2023-05-08T08:21:52.787Z,100042.59
2023-05-08T08:24:24.392Z,100040.79
2023-05-08T08:26:55.450Z,100039.50
2023-05-08T08:29:26.197Z,100043.05
2023-05-08T08:31:57.332Z,100034.98
2023-05-08T08:34:28.206Z,100036.34
2023-05-08T08:36:59.151Z,100028.61
2023-05-08T08:39:33.375Z,100024.73
2023-05-08T08:42:04.822Z,100027.98
2023-05-08T08:44:36.124Z,100030.33
2023-05-08T08:47:11.624Z,100029.58
2023-05-08T08:49:49.281Z,100029.95
2023-05-08T08:52:28.342Z,100029.66
2023-05-08T08:55:01.454Z,100033.64
2023-05-08T08:57:38.127Z,100030.86
2023-05-08T09:00:14.259Z,100026.39
2023-05-08T09:02:45.433Z,100024.89
2023-05-08T09:05:16.934Z,100019.71
2023-05-08T09:07:48.908Z,100016.09
2023-05-08T09:10:21.205Z,100015.15
2023-05-08T09:12:52.451Z,100013.60
2023-05-08T09:15:23.342Z,100009.67
2023-05-08T09:17:54.296Z,100010.77
2023-05-08T09:20:26.780Z,100004.49
2023-05-08T09:22:58.868Z,100000.59
2023-05-08T09:25:42.041Z,100002.16
2023-05-08T09:28:23.409Z,100006.60
2023-05-08T09:30:56.524Z,100007.95
2023-05-08T09:33:29.108Z,100000.87
2023-05-08T09:36:00.342Z,100000.98
2023-05-08T09:38:38.669Z,99997.08
2023-05-08T09:41:15.493Z,99994.36
2023-05-08T09:44:01.389Z,99993.40
2023-05-08T09:46:34.060Z,99991.73
2023-05-08T09:49:06.162Z,99992.41
2023-05-08T09:51:37.009Z,99995.27
2023-05-08T09:54:20.325Z,99996.44
2023-05-08T09:56:51.373Z,99993.71
2023-05-08T09:59:30.831Z,99992.06
2023-05-08T10:02:16.281Z,99992.99
2023-05-08T10:04:47.599Z,99979.75
2023-05-08T10:07:28.008Z,99978.48
2023-05-08T10:10:06.557Z,99985.92
2023-05-08T10:12:38.094Z,99982.45
2023-05-08T10:15:11.341Z,99978.92
2023-05-08T10:17:49.720Z,99976.55
2023-05-08T10:20:26.120Z,99981.27
2023-05-08T10:22:59.769Z,99984.05
2023-05-08T10:25:36.638Z,99978.48
2023-05-08T10:28:14.895Z,99972.81
2023-05-08T10:30:49.595Z,99967.71
2023-05-08T10:33:25.090Z,99960.48
2023-05-08T10:35:56.171Z,99962.84
2023-05-08T10:38:27.974Z,99957.45
2023-05-08T10:41:03.363Z,99952.98
2023-05-08T10:43:34.916Z,99955.84
2023-05-08T10:46:17.179Z,99947.80
2023-05-08T10:48:57.646Z,99949.02
2023-05-08T10:51:36.700Z,99945.67
2023-05-08T10:54:14.198Z,99946.83
2023-05-08T10:56:45.269Z,99944.55
2023-05-08T10:59:22.979Z,99939.06
2023-05-08T11:01:53.731Z,99935.77
2023-05-08T11:04:25.560Z,99939.76
2023-05-08T11:06:59.239Z,99941.67
2023-05-08T11:09:37.859Z,99941.84
2023-05-08T11:12:19.967Z,99938.05
2023-05-08T11:14:58.744Z,99935.90
2023-05-08T11:17:30.115Z,99934.70
2023-05-08T11:20:03.338Z,99931.86
2023-05-08T11:22:35.002Z,99932.58
2023-05-08T11:25:08.870Z,99930.85
2023-05-08T11:27:57.532Z,99930.34
2023-05-08T11:30:39.864Z,99927.55
2023-05-08T11:33:18.424Z,99923.52
2023-05-08T11:35:51.804Z,99926.95
2023-05-08T11:38:25.009Z,99922.66
2023-05-08T11:41:00.876Z,99918.48
2023-05-08T11:44:04.732Z,99914.86
2023-05-08T11:46:42.435Z,99910.38
2023-05-08T11:49:18.972Z,99908.17
2023-05-08T11:51:55.254Z,99908.84
2023-05-08T11:54:24.904Z,99905.77
2023-05-08T11:56:59.740Z,99907.98
2023-05-08T11:59:36.152Z,99904.73
2023-05-08T12:02:09.602Z,99906.70
2023-05-08T12:04:48.252Z,99907.23
2023-05-08T12:07:20.688Z,99905.28
2023-05-08T12:09:51.623Z,99901.38
2023-05-08T12:12:22.632Z,99903.00
2023-05-08T12:14:53.973Z,99900.42
2023-05-08T12:17:24.899Z,99900.64
2023-05-08T12:20:04.293Z,99900.31
2023-05-08T12:22:35.395Z,99899.23
2023-05-08T12:25:08.877Z,99903.10
2023-05-08T12:27:40.526Z,99901.64
2023-05-08T12:30:14.125Z,99904.11
2023-05-08T12:32:45.827Z,99901.73
2023-05-08T12:35:17.535Z,99908.55
2023-05-08T12:37:49.040Z,99907.36
2023-05-08T12:40:31.525Z,99903.01
2023-05-08T12:43:03.961Z,99903.33
2023-05-08T12:45:39.320Z,99902.67
2023-05-08T12:48:12.853Z,99900.67
2023-05-08T12:50:42.965Z,99894.09
2023-05-08T12:53:15.987Z,99893.52
2023-05-08T12:55:55.041Z,99888.47
2023-05-08T12:58:29.141Z,99887.28
2023-05-08T13:01:12.063Z,99881.87
2023-05-08T13:03:43.307Z,99882.77
2023-05-08T13:06:25.597Z,99883.48
2023-05-08T13:08:57.550Z,99874.89
2023-05-08T13:11:35.158Z,99876.19
2023-05-08T13:14:06.091Z,99872.55
2023-05-08T13:16:47.902Z,99868.98
2023-05-08T13:19:19.155Z,99868.93
2023-05-08T13:21:50.110Z,99868.29
2023-05-08T13:24:21.034Z,99868.89
2023-05-08T13:26:51.941Z,99862.11
2023-05-08T13:29:22.824Z,99856.45
2023-05-08T13:31:53.763Z,99857.73
2023-05-08T13:34:25.552Z,99860.23
2023-05-08T13:36:56.347Z,99855.08
2023-05-08T13:39:27.410Z,99858.35
2023-05-08T13:41:58.116Z,99850.84
2023-05-08T13:44:28.881Z,99851.89
2023-05-08T13:46:59.704Z,99851.42
2023-05-08T13:49:30.347Z,99847.88
2023-05-08T13:52:01.304Z,99851.54
2023-05-08T13:54:32.470Z,99852.99
2023-05-08T13:57:03.965Z,99851.73
2023-05-08T13:59:34.722Z,99849.19
2023-05-08T14:02:05.589Z,99850.70
2023-05-08T14:04:36.576Z,99853.00
2023-05-08T14:07:07.568Z,99852.20
2023-05-08T14:09:38.612Z,99852.38
2023-05-08T14:12:09.658Z,99850.79
2023-05-08T14:14:41.214Z,99856.16
2023-05-08T14:17:12.384Z,99861.41
2023-05-08T14:19:43.357Z,99860.28
2023-05-08T14:22:14.188Z,99855.69
2023-05-08T14:24:45.357Z,99854.90
2023-05-08T14:27:16.351Z,99852.43
2023-05-08T14:29:47.255Z,99849.58
2023-05-08T14:32:18.183Z,99849.98
2023-05-08T14:34:49.275Z,99852.45
2023-05-08T14:37:20.333Z,99849.55
2023-05-08T14:39:54.164Z,99845.46
2023-05-08T14:42:25.427Z,99841.44
2023-05-08T14:44:57.053Z,99849.67
2023-05-08T14:47:28.723Z,99848.31
2023-05-08T14:49:59.744Z,99846.13
2023-05-08T14:52:30.831Z,99845.19
2023-05-08T14:55:02.117Z,99847.96
2023-05-08T14:57:33.296Z,99848.30
2023-05-08T15:00:04.946Z,99849.92
2023-05-08T15:02:35.989Z,99847.20
2023-05-08T15:05:11.080Z,99848.47
2023-05-08T15:07:50.113Z,99851.23
2023-05-08T15:10:21.169Z,99858.01
2023-05-08T15:12:52.364Z,99860.14
2023-05-08T15:15:23.596Z,99860.19
2023-05-08T15:17:55.111Z,99859.23
2023-05-08T15:20:26.121Z,99856.30
2023-05-08T15:22:57.007Z,99855.84
2023-05-08T15:25:28.092Z,99852.77
2023-05-08T15:28:00.854Z,99855.24
2023-05-08T15:30:32.240Z,99857.42
2023-05-08T15:33:03.526Z,99857.02
2023-05-08T15:35:34.730Z,99853.30
2023-05-08T15:38:07.329Z,99857.83
2023-05-08T15:40:38.384Z,99862.69
2023-05-08T15:43:09.605Z,99860.83
2023-05-08T15:45:40.417Z,99862.48
2023-05-08T15:48:11.319Z,99862.29
2023-05-08T15:50:42.301Z,99864.60
2023-05-08T15:53:13.634Z,99861.21
2023-05-08T15:55:44.526Z,99861.30
2023-05-08T15:58:15.648Z,99863.45
2023-05-08T16:00:46.510Z,99865.79
2023-05-08T16:03:18.775Z,99863.26
2023-05-08T16:05:50.031Z,99864.67
2023-05-08T16:08:20.876Z,99861.61
2023-05-08T16:10:51.821Z,99856.55
2023-05-08T16:13:24.924Z,99852.66
2023-05-08T16:15:56.098Z,99853.61
2023-05-08T16:18:26.909Z,99854.63
2023-05-08T16:20:58.111Z,99858.52
2023-05-08T16:23:29.194Z,99859.14
2023-05-08T16:26:00.473Z,99864.18
2023-05-08T16:28:31.805Z,99865.48
2023-05-08T16:31:04.945Z,99863.86
2023-05-08T16:33:36.247Z,99865.89
2023-05-08T16:36:08.272Z,99871.27
2023-05-08T16:38:39.160Z,99876.21
2023-05-08T16:41:10.535Z,99876.67
2023-05-08T16:43:41.591Z,99879.45
2023-05-08T16:46:12.982Z,99885.63
2023-05-08T16:48:43.853Z,99885.98
2023-05-08T16:51:15.194Z,99891.77
2023-05-08T16:53:46.142Z,99892.05
2023-05-08T16:56:17.353Z,99891.39
2023-05-08T16:58:48.333Z,99890.34
2023-05-08T17:01:19.442Z,99894.70
2023-05-08T17:03:51.246Z,99891.99
2023-05-08T17:06:22.389Z,99890.81
2023-05-08T17:08:53.398Z,99892.23
2023-05-08T17:11:24.268Z,99893.05
2023-05-08T17:13:55.316Z,99893.90
2023-05-08T17:16:26.174Z,99899.94
2023-05-08T17:18:57.813Z,99897.91
2023-05-08T17:21:30.405Z,99899.27
2023-05-08T17:24:02.190Z,99904.02
2023-05-08T17:26:35.834Z,99905.51
2023-05-08T17:29:07.290Z,99908.02
2023-05-08T17:31:38.309Z,99910.23
2023-05-08T17:34:09.324Z,99914.95
2023-05-08T17:36:40.538Z,99916.94
2023-05-08T17:39:11.691Z,99915.77
2023-05-08T17:41:42.693Z,99917.55
2023-05-08T17:44:13.693Z,99920.23
2023-05-08T17:46:44.784Z,99918.54
2023-05-08T17:49:17.104Z,99919.48
2023-05-08T17:51:50.731Z,99918.30
2023-05-08T17:54:21.988Z,99918.04
2023-05-08T17:56:52.805Z,99921.05
2023-05-08T17:59:24.113Z,99917.23
2023-05-08T18:01:55.598Z,99923.98
2023-05-08T18:04:27.068Z,99929.91
2023-05-08T18:07:01.355Z,99930.59
2023-05-08T18:09:32.454Z,99938.59
2023-05-08T18:12:03.878Z,99936.35
2023-05-08T18:14:34.867Z,99941.01
2023-05-08T18:17:06.155Z,99943.84
2023-05-08T18:19:37.266Z,99946.05
2023-05-08T18:22:08.413Z,99950.08
2023-05-08T18:24:39.450Z,99960.89
2023-05-08T18:27:10.412Z,99962.16
2023-05-08T18:29:41.289Z,99962.23
2023-05-08T18:32:12.671Z,99964.91
2023-05-08T18:34:43.810Z,99964.96
2023-05-08T18:37:15.182Z,99964.81
2023-05-08T18:39:46.498Z,99964.41
2023-05-08T18:42:17.644Z,99961.67
2023-05-08T18:44:48.659Z,99966.23
2023-05-08T18:47:19.761Z,99972.48
2023-05-08T18:49:51.560Z,99976.65
2023-05-08T18:52:22.541Z,99980.00
2023-05-08T18:54:53.495Z,99985.58
2023-05-08T18:57:24.672Z,99988.30
2023-05-08T18:59:55.748Z,99989.51
2023-05-08T19:02:28.155Z,99996.07
2023-05-08T19:04:59.335Z,99994.24
2023-05-08T19:07:30.458Z,99996.32
2023-05-08T19:10:01.273Z,99996.86
2023-05-08T19:12:32.154Z,99998.42
2023-05-08T19:15:03.711Z,100000.14
2023-05-08T19:17:35.539Z,100002.71
2023-05-08T19:20:08.340Z,100000.32
2023-05-08T19:22:39.382Z,100003.40
2023-05-08T19:25:12.918Z,100002.48
2023-05-08T19:27:43.757Z,100002.21
2023-05-08T19:30:16.150Z,100005.76
2023-05-08T19:32:47.268Z,100008.52
2023-05-08T19:35:18.084Z,100008.27
2023-05-08T19:37:48.843Z,100006.11
2023-05-08T19:40:19.998Z,100009.71
2023-05-08T19:42:51.074Z,100008.04
2023-05-08T19:45:22.222Z,100012.33
2023-05-08T19:47:53.093Z,100016.70
2023-05-08T19:50:24.632Z,100019.84
2023-05-08T19:52:56.577Z,100016.11
2023-05-08T19:55:27.333Z,100021.29
2023-05-08T19:57:58.155Z,100022.48
2023-05-08T20:00:29.385Z,100023.44
2023-05-08T20:03:00.424Z,100023.79
2023-05-08T20:05:31.852Z,100024.47
2023-05-08T20:08:02.834Z,100028.94
2023-05-08T20:10:33.589Z,100028.23
2023-05-08T20:13:05.694Z,100028.08
2023-05-08T20:15:36.606Z,100029.05
2023-05-08T20:18:07.757Z,100028.15
2023-05-08T20:20:38.865Z,100025.33
2023-05-08T20:23:09.700Z,100030.77
2023-05-08T20:25:40.440Z,100030.77
2023-05-08T20:28:11.300Z,100027.15
2023-05-08T20:30:42.250Z,100026.44
2023-05-08T20:33:13.163Z,100028.38
2023-05-08T20:35:43.849Z,100032.06
2023-05-08T20:38:16.148Z,100034.35
2023-05-08T20:40:47.327Z,100034.88
2023-05-08T20:43:19.545Z,100036.61
2023-05-08T20:45:50.341Z,100035.43
2023-05-08T20:48:21.174Z,100041.09
2023-05-08T20:50:52.214Z,100040.71
2023-05-08T20:53:23.172Z,100040.06
2023-05-08T20:56:00.579Z,100041.38
2023-05-08T20:58:31.304Z,100043.54
2023-05-08T21:01:02.164Z,100043.23
2023-05-08T21:03:33.082Z,100043.25
2023-05-08T21:06:03.930Z,100042.23
2023-05-08T21:08:36.093Z,100041.55
2023-05-08T21:11:06.927Z,100043.61
2023-05-08T21:13:37.708Z,100037.64
2023-05-08T21:16:09.325Z,100040.08
2023-05-08T21:18:40.145Z,100036.21
2023-05-08T21:21:19.381Z,100030.32
2023-05-08T21:23:50.330Z,100033.36
2023-05-08T21:26:23.615Z,100030.98
2023-05-08T21:28:54.665Z,100031.08
2023-05-08T21:31:25.387Z,100032.44
2023-05-08T21:33:56.062Z,100033.79
2023-05-08T21:36:26.857Z,100034.92
2023-05-08T21:38:57.855Z,100027.36
2023-05-08T21:41:28.980Z,100022.64
2023-05-08T21:43:59.673Z,100020.57
2023-05-08T21:46:30.527Z,100022.59
2023-05-08T21:49:01.262Z,100018.52
2023-05-08T21:51:32.727Z,100015.46
2023-05-08T21:54:03.506Z,100013.70
2023-05-08T21:56:34.238Z,100012.13
2023-05-08T21:59:04.890Z,100009.89
2023-05-08T22:01:35.759Z,100003.90
2023-05-08T22:04:06.631Z,100000.92
2023-05-08T22:06:37.282Z,100006.52
2023-05-08T22:09:08.154Z,100004.45
2023-05-08T22:11:38.978Z,100003.27
2023-05-08T22:14:09.714Z,100004.55
2023-05-08T22:16:42.472Z,100005.54
2023-05-08T22:19:13.479Z,100004.53
2023-05-08T22:21:44.766Z,100006.02
2023-05-08T22:24:16.079Z,100011.27
2023-05-08T22:26:46.782Z,100011.73
2023-05-08T22:29:17.654Z,100011.39
2023-05-08T22:31:49.119Z,100009.48
2023-05-08T22:34:20.154Z,100008.14
2023-05-08T22:36:51.219Z,100007.59
2023-05-08T22:39:22.211Z,100006.91
2023-05-08T22:41:53.677Z,100002.35
2023-05-08T22:44:24.486Z,100002.70
2023-05-08T22:46:57.012Z,99998.70
2023-05-08T22:49:28.748Z,99996.94
2023-05-08T22:51:59.476Z,99999.48
2023-05-08T22:54:30.834Z,100000.52
2023-05-08T22:57:01.784Z,99995.80
2023-05-08T22:59:32.722Z,99999.34
2023-05-08T23:02:03.530Z,99996.46
2023-05-08T23:04:34.095Z,100002.89
2023-05-08T23:07:04.953Z,100000.36
2023-05-08T23:09:35.910Z,100001.10
2023-05-08T23:12:07.458Z,99998.68
2023-05-08T23:14:38.274Z,99998.48
2023-05-08T23:17:13.836Z,99995.61
2023-05-08T23:19:45.497Z,99994.42
2023-05-08T23:22:16.174Z,99994.10
2023-05-08T23:24:47.352Z,99997.14
2023-05-08T23:27:18.241Z,99998.77
2023-05-08T23:29:49.155Z,99992.29
2023-05-08T23:32:19.859Z,99990.99
2023-05-08T23:34:50.802Z,99983.77
2023-05-08T23:37:21.575Z,99985.66
2023-05-08T23:39:52.414Z,99981.99
2023-05-08T23:42:23.163Z,99983.42
2023-05-08T23:44:53.889Z,99977.80
2023-05-08T23:47:24.728Z,99978.26
2023-05-08T23:49:55.588Z,99975.23
2023-05-08T23:52:26.867Z,99973.86
2023-05-08T23:54:57.659Z,99967.39
2023-05-08T23:57:28.399Z,99960.51
2023-05-08T23:59:59.137Z,99964.23
